Time;durP1;ratioP1;P1;durP2;ratioP2;P2;SDS_P1;SDS_P2;PMS_P1;PMS_P2;Temp;Humidity;BMP_temperature;BMP_pressure;BME280_temperature;BME280_humidity;BME280_pressure;Samples;Min_cycle;Max_cycle;Signal;HPM_P1;HPM_P2
2022/01/25 00:29:04;;;;;;;10.20;2.08;;;25.40;98.20;;;;;;5028084;28;20042;-71
2022/01/25 00:31:33;;;;;;;10.07;1.80;;;25.30;97.80;;;;;;5032972;28;20033;-73
2022/01/25 00:34:02;;;;;;;8.15;1.60;;;25.30;98.20;;;;;;5032258;28;20382;-70
2022/01/25 00:36:30;;;;;;;6.93;1.25;;;25.40;98.00;;;;;;5031190;28;20022;-70
2022/01/25 00:38:58;;;;;;;7.80;1.75;;;25.40;97.70;;;;;;5031046;28;20467;-70
2022/01/25 00:41:27;;;;;;;6.35;1.42;;;25.40;97.90;;;;;;5030931;28;20037;-72
2022/01/25 00:43:58;;;;;;;9.40;1.70;;;25.30;97.80;;;;;;5030995;28;20438;-72
2022/01/25 00:46:25;;;;;;;6.95;1.40;;;25.40;98.10;;;;;;5031303;28;20026;-67
2022/01/25 00:48:56;;;;;;;3.97;1.20;;;25.30;97.80;;;;;;5031469;28;20021;-71
2022/01/25 00:56:44;;;;;;;7.80;1.48;;;25.10;98.30;;;;;;5032636;28;20029;-66
2022/01/25 00:59:16;;;;;;;8.20;1.75;;;25.00;98.30;;;;;;5033444;28;20035;-68
2022/01/25 01:01:53;;;;;;;9.02;1.73;;;24.90;98.50;;;;;;5032294;28;20052;-66
2022/01/25 01:04:22;;;;;;;12.18;1.73;;;24.70;99.00;;;;;;5032708;28;20049;-67
2022/01/25 01:06:50;;;;;;;11.55;2.38;;;24.70;99.00;;;;;;5032183;28;20029;-71
2022/01/25 01:09:20;;;;;;;14.98;2.33;;;24.70;99.30;;;;;;5031951;28;20441;-70
2022/01/25 01:11:55;;;;;;;11.57;2.97;;;24.60;99.30;;;;;;5030965;28;20033;-68
2022/01/25 01:14:48;;;;;;;12.40;4.10;;;24.70;99.30;;;;;;5032197;28;20112;-67
2022/01/25 01:44:39;;;;;;;7.25;2.28;;;26.20;97.30;;;;;;5031843;28;20462;-66
2022/01/25 01:47:08;;;;;;;10.25;2.03;;;26.60;96.40;;;;;;5032186;28;20409;-69
2022/01/25 01:49:45;;;;;;;12.93;3.30;;;26.80;96.30;;;;;;5031956;28;20112;-71
2022/01/25 01:52:13;;;;;;;8.07;1.40;;;26.80;96.00;;;;;;5031785;28;20029;-68
2022/01/25 01:54:41;;;;;;;9.02;1.60;;;26.90;96.10;;;;;;5029977;28;20025;-68
2022/01/25 01:57:09;;;;;;;11.23;2.30;;;27.20;96.20;;;;;;5031494;28;20029;-66
2022/01/25 01:59:36;;;;;;;10.40;1.98;;;27.60;95.50;;;;;;5031519;28;20029;-68
2022/01/25 02:02:04;;;;;;;10.10;1.98;;;27.70;95.10;;;;;;5031506;28;20501;-68
2022/01/25 02:04:32;;;;;;;11.75;1.90;;;27.70;94.60;;;;;;5031616;28;20112;-68
2022/01/25 02:06:59;;;;;;;8.60;1.95;;;27.70;94.80;;;;;;5031598;28;20026;-69
2022/01/25 02:09:26;;;;;;;8.60;1.70;;;28.00;94.80;;;;;;5031149;28;20379;-70
2022/01/25 02:11:54;;;;;;;9.95;1.70;;;28.10;93.90;;;;;;5030145;28;20053;-67
2022/01/25 02:14:21;;;;;;;8.50;1.60;;;28.00;94.00;;;;;;5031687;28;20079;-68
2022/01/25 02:22:26;;;;;;;7.80;1.60;;;28.00;92.90;;;;;;5031246;28;20132;-71
2022/01/25 02:24:53;;;;;;;;;;;28.10;93.60;;;;;;5031905;28;20030;-69
2022/01/25 02:27:21;;;;;;;9.18;3.33;;;28.40;93.30;;;;;;5031410;28;19991;-69
2022/01/25 02:29:49;;;;;;;13.57;2.17;;;28.60;92.40;;;;;;5030200;28;20069;-67
2022/01/25 02:32:20;;;;;;;5.47;1.95;;;28.60;92.30;;;;;;5032061;28;20059;-71
2022/01/25 02:34:48;;;;;;;7.05;1.17;;;28.60;92.70;;;;;;5035071;28;20091;-68
2022/01/25 02:37:16;;;;;;;10.40;1.88;;;28.70;92.40;;;;;;5035208;28;20393;-70
2022/01/25 02:39:45;;;;;;;15.18;2.90;;;28.80;92.70;;;;;;5034707;28;20441;-67
2022/01/25 02:42:15;;;;;;;7.28;1.70;;;29.00;92.20;;;;;;5034819;28;20025;-71
2022/01/25 02:44:44;;;;;;;9.55;1.92;;;29.00;91.60;;;;;;5034868;28;20022;-70
2022/01/25 02:49:58;;;;;;;10.55;2.10;;;29.40;91.50;;;;;;5034963;28;20032;-68
2022/01/25 02:52:25;;;;;;;7.80;2.28;;;29.70;92.00;;;;;;5035200;28;20072;-69
2022/01/25 02:54:54;;;;;;;10.77;1.77;;;29.90;91.00;;;;;;5034860;28;20017;-72
2022/01/25 02:57:37;;;;;;;6.97;1.98;;;29.90;90.90;;;;;;5034544;28;20056;-70
2022/01/25 03:00:08;;;;;;;7.43;1.60;;;29.80;90.90;;;;;;5034694;28;20017;-68
2022/01/25 03:02:36;;;;;;;8.32;2.20;;;29.80;90.50;;;;;;5034428;28;20030;-74
2022/01/25 03:05:04;;;;;;;6.72;1.75;;;29.40;91.10;;;;;;5034517;28;20026;-67
2022/01/25 03:07:33;;;;;;;9.13;1.70;;;29.40;91.20;;;;;;5034316;28;20033;-68
2022/01/25 03:10:01;;;;;;;9.15;2.47;;;29.50;90.70;;;;;;5034375;28;20049;-68
2022/01/25 03:12:44;;;;;;;5.70;1.98;;;29.70;90.90;;;;;;5034803;28;20251;-67
2022/01/25 03:17:55;;;;;;;9.93;2.30;;;30.20;90.50;;;;;;5034432;28;20021;-68
2022/01/25 03:20:36;;;;;;;8.43;2.17;;;30.10;90.50;;;;;;5034663;28;20029;-69
2022/01/25 03:23:18;;;;;;;8.67;2.00;;;30.20;90.50;;;;;;5034198;28;20026;-68
2022/01/25 03:25:47;;;;;;;10.73;1.45;;;30.20;90.20;;;;;;5034060;28;20074;-72
2022/01/25 03:28:19;;;;;;;6.50;1.58;;;30.10;90.00;;;;;;5034146;28;20101;-71
2022/01/25 03:30:47;;;;;;;;;;;30.10;90.10;;;;;;5032936;28;20047;-70
2022/01/25 03:33:15;;;;;;;11.10;2.38;;;30.20;90.30;;;;;;5034349;28;19995;-69
2022/01/25 03:35:45;;;;;;;10.10;1.92;;;30.40;89.20;;;;;;5034039;28;20025;-71
2022/01/25 03:38:14;;;;;;;6.80;1.85;;;30.40;89.30;;;;;;5032569;28;20052;-68
2022/01/25 03:40:42;;;;;;;7.75;1.63;;;30.60;88.70;;;;;;5034581;28;20414;-68
2022/01/25 03:43:09;;;;;;;7.13;2.35;;;30.40;89.60;;;;;;5033933;28;20060;-68
2022/01/25 03:45:40;;;;;;;10.95;2.17;;;30.30;89.30;;;;;;5029353;28;20045;-73
2022/01/25 03:50:43;;;;;;;7.20;2.40;;;30.60;89.20;;;;;;5032185;28;20474;-71
2022/01/25 03:53:12;;;;;;;8.65;2.10;;;30.90;88.10;;;;;;5032863;28;20584;-70
2022/01/25 03:55:39;;;;;;;8.13;1.90;;;31.00;86.40;;;;;;5033611;28;20033;-74
2022/01/25 03:58:07;;;;;;;9.05;2.50;;;30.70;86.90;;;;;;5033735;28;20466;-71
2022/01/25 04:00:37;;;;;;;9.52;2.08;;;31.20;87.00;;;;;;5032967;28;20386;-70
2022/01/25 04:03:12;;;;;;;10.60;2.83;;;31.80;84.30;;;;;;5033769;28;20029;-72
2022/01/25 04:08:10;;;;;;;10.52;1.92;;;31.90;82.40;;;;;;5033399;28;20021;-72
2022/01/25 04:10:39;;;;;;;8.68;3.03;;;31.80;82.90;;;;;;5032993;28;20771;-72
2022/01/25 04:13:07;;;;;;;6.05;1.90;;;32.00;82.70;;;;;;5031594;28;20029;-72
2022/01/25 04:15:44;;;;;;;9.93;1.85;;;32.60;81.90;;;;;;5033477;28;20025;-70
2022/01/25 04:21:00;;;;;;;8.07;2.03;;;33.40;79.30;;;;;;5032797;28;20032;-73
2022/01/25 04:26:13;;;;;;;8.80;2.25;;;33.60;76.80;;;;;;5033380;28;20063;-72
2022/01/25 04:28:41;;;;;;;10.80;1.88;;;33.20;77.90;;;;;;5031618;28;20384;-70
2022/01/25 04:31:08;;;;;;;10.75;2.63;;;32.90;79.30;;;;;;5032773;28;20042;-72
2022/01/25 04:33:43;;;;;;;8.98;2.10;;;33.00;77.90;;;;;;5034395;28;20039;-70
2022/01/25 04:48:50;;;;;;;6.22;1.52;;;33.40;77.80;;;;;;5033271;28;20025;-68
2022/01/25 04:50:01;;;;;;;7.07;1.90;;;34.80;72.80;;;;;;5032886;28;20155;-70
2022/01/25 04:52:34;;;;;;;10.38;2.30;;;34.70;74.10;;;;;;5033326;28;20022;-69
2022/01/25 04:55:14;;;;;;;6.57;1.60;;;35.10;72.40;;;;;;5032860;28;20105;-71
2022/01/25 04:57:49;;;;;;;7.35;1.50;;;35.40;72.60;;;;;;5032784;28;20037;-73
2022/01/25 05:00:21;;;;;;;7.10;1.88;;;35.70;70.20;;;;;;5033159;28;20040;-69
2022/01/25 05:03:09;;;;;;;4.72;1.60;;;35.10;71.00;;;;;;5032994;28;20026;-74
2022/01/25 05:05:51;;;;;;;6.43;1.98;;;35.10;71.30;;;;;;5032087;28;20444;-73
2022/01/25 05:11:26;;;;;;;7.55;1.73;;;35.30;70.50;;;;;;5032615;28;20054;-73
2022/01/25 05:16:27;;;;;;;9.52;1.83;;;34.60;70.10;;;;;;5032459;28;20470;-72
2022/01/25 05:19:10;;;;;;;5.72;1.33;;;33.80;73.20;;;;;;5032243;28;20434;-72
2022/01/25 05:24:23;;;;;;;6.40;1.80;;;33.80;73.30;;;;;;5031945;28;20040;-71
2022/01/25 05:26:50;;;;;;;5.80;1.52;;;34.00;73.00;;;;;;5031877;28;20037;-74
2022/01/25 05:29:18;;;;;;;7.00;1.88;;;34.20;71.90;;;;;;5029891;28;20034;-73
2022/01/25 05:31:45;;;;;;;7.50;1.70;;;34.40;72.40;;;;;;5031754;28;20028;-70
2022/01/25 05:34:13;;;;;;;5.45;1.27;;;34.40;71.70;;;;;;5031984;28;20029;-72
2022/01/25 05:36:43;;;;;;;7.25;1.20;;;34.30;71.20;;;;;;5031752;28;20024;-70
2022/01/25 05:39:18;;;;;;;5.43;1.80;;;34.00;71.50;;;;;;5031547;28;20044;-71
2022/01/25 05:41:54;;;;;;;5.05;1.42;;;33.90;71.00;;;;;;5031644;28;20393;-72
2022/01/25 05:47:08;;;;;;;5.05;1.08;;;32.60;73.60;;;;;;5031980;28;20123;-71
2022/01/25 05:49:38;;;;;;;5.15;1.00;;;32.20;74.90;;;;;;5031271;28;20109;-72
2022/01/25 05:52:08;;;;;;;7.25;1.60;;;32.50;74.90;;;;;;5031875;28;20415;-73
2022/01/25 05:54:36;;;;;;;6.80;1.63;;;32.70;74.60;;;;;;5030547;28;20029;-73
2022/01/25 05:57:05;;;;;;;10.05;1.65;;;32.80;73.40;;;;;;5028521;28;20071;-68
2022/01/25 05:59:32;;;;;;;7.10;1.83;;;32.70;73.90;;;;;;5030586;28;20033;-70
2022/01/25 06:01:59;;;;;;;8.27;1.38;;;32.50;74.30;;;;;;5030111;28;20030;-73
2022/01/25 06:04:27;;;;;;;5.47;1.33;;;31.80;75.20;;;;;;5030112;28;20497;-76
2022/01/25 06:06:55;;;;;;;7.65;2.05;;;31.30;76.40;;;;;;5029490;28;20028;-66
2022/01/25 06:09:25;;;;;;;5.30;1.23;;;31.00;76.90;;;;;;5026530;28;20033;-73
2022/01/25 06:11:55;;;;;;;6.18;1.25;;;30.70;78.00;;;;;;5029730;28;20018;-67
2022/01/25 06:14:23;;;;;;;6.13;1.17;;;30.10;78.60;;;;;;5027403;28;20032;-68
2022/01/25 06:16:50;;;;;;;5.57;1.00;;;30.10;79.40;;;;;;5029938;28;20010;-72
2022/01/25 06:19:17;;;;;;;5.88;1.02;;;30.30;78.40;;;;;;5029093;28;20398;-70
2022/01/25 06:21:45;;;;;;;4.63;1.13;;;30.30;77.90;;;;;;5030053;28;20022;-70
2022/01/25 06:24:12;;;;;;;5.60;1.17;;;30.30;78.60;;;;;;5029937;28;20489;-69
2022/01/25 06:26:39;;;;;;;5.30;1.25;;;30.30;78.00;;;;;;5028026;28;20444;-72
2022/01/25 06:29:07;;;;;;;4.45;0.82;;;29.90;79.40;;;;;;5029479;28;20018;-72
2022/01/25 06:31:34;;;;;;;9.00;0.95;;;29.90;79.60;;;;;;5028161;28;20026;-67
2022/01/25 06:34:02;;;;;;;8.15;1.25;;;29.70;80.00;;;;;;5028807;28;20025;-70
2022/01/25 06:36:29;;;;;;;7.40;1.40;;;29.60;81.00;;;;;;5029865;28;20033;-72
2022/01/25 06:38:56;;;;;;;6.72;1.30;;;29.50;81.50;;;;;;5030219;28;20014;-69
2022/01/25 06:41:23;;;;;;;6.57;1.52;;;29.10;80.70;;;;;;5029730;28;20021;-70
2022/01/25 06:43:51;;;;;;;35.25;4.13;;;28.80;82.00;;;;;;5029666;28;20032;-73
2022/01/25 06:46:18;;;;;;;9.57;2.65;;;28.70;82.70;;;;;;5027171;28;20014;-69
2022/01/25 06:48:45;;;;;;;9.63;2.28;;;28.70;83.00;;;;;;5029918;28;20028;-73
2022/01/25 06:51:13;;;;;;;4.55;1.15;;;28.40;84.10;;;;;;5029384;28;20391;-73
2022/01/25 06:53:41;;;;;;;8.32;1.58;;;28.40;83.30;;;;;;5029161;28;20036;-72
2022/01/25 06:56:08;;;;;;;6.40;1.40;;;28.20;83.70;;;;;;5031502;28;20018;-69
2022/01/25 06:58:36;;;;;;;3.47;1.00;;;28.20;84.20;;;;;;5029763;28;20511;-71
2022/01/25 07:01:04;;;;;;;10.32;1.15;;;28.20;85.40;;;;;;5030995;28;20048;-76
2022/01/25 07:03:31;;;;;;;7.55;1.55;;;28.10;84.80;;;;;;5030663;28;20152;-73
2022/01/25 07:05:59;;;;;;;38.80;5.50;;;28.00;85.30;;;;;;5026130;28;20021;-71
2022/01/25 07:08:27;;;;;;;9.40;1.58;;;27.70;85.90;;;;;;5030069;28;20030;-74
2022/01/25 07:10:55;;;;;;;9.88;1.75;;;27.50;86.40;;;;;;5029166;28;20049;-73
2022/01/25 07:13:22;;;;;;;6.95;1.33;;;27.50;87.70;;;;;;5028771;28;20039;-75
2022/01/25 07:15:49;;;;;;;7.70;1.55;;;27.50;86.80;;;;;;5028974;28;20501;-69
2022/01/25 07:18:18;;;;;;;6.80;1.27;;;27.40;87.30;;;;;;5027289;28;20105;-70
2022/01/25 07:20:45;;;;;;;8.02;1.60;;;27.40;86.80;;;;;;5033032;28;20018;-73
2022/01/25 07:23:13;;;;;;;6.32;0.98;;;27.40;87.30;;;;;;5033052;28;20382;-71
2022/01/25 07:25:40;;;;;;;8.73;1.92;;;27.40;87.30;;;;;;5033365;28;20083;-74
2022/01/25 07:28:08;;;;;;;6.18;1.10;;;27.50;86.90;;;;;;5032903;28;20063;-72
2022/01/25 07:30:35;;;;;;;8.25;1.42;;;27.50;86.80;;;;;;5031177;28;20029;-72
2022/01/25 07:33:05;;;;;;;5.88;1.30;;;27.20;86.80;;;;;;5028792;28;20470;-71
2022/01/25 07:35:36;;;;;;;5.65;0.90;;;27.00;88.60;;;;;;5028428;28;20466;-74
2022/01/25 07:38:04;;;;;;;4.30;1.55;;;26.80;88.70;;;;;;5032682;28;20565;-73
2022/01/25 07:40:34;;;;;;;6.65;1.33;;;26.70;89.20;;;;;;5036312;28;20023;-71
2022/01/25 07:43:02;;;;;;;6.30;1.38;;;26.50;89.60;;;;;;5029542;28;20029;-71
2022/01/25 07:45:34;;;;;;;5.78;1.45;;;26.40;90.00;;;;;;5034190;28;20017;-70
2022/01/25 07:48:05;;;;;;;4.43;0.98;;;26.30;89.90;;;;;;5034096;28;20022;-71
2022/01/25 07:50:32;;;;;;;7.10;1.23;;;26.20;89.80;;;;;;5033386;28;20033;-71
2022/01/25 07:53:00;;;;;;;8.40;1.67;;;26.00;90.20;;;;;;5029022;28;20039;-73
2022/01/25 07:55:27;;;;;;;8.40;2.95;;;26.00;90.50;;;;;;5030805;28;20025;-71
2022/01/25 07:57:55;;;;;;;5.22;1.20;;;25.90;90.70;;;;;;5033332;28;20045;-76
2022/01/25 08:00:22;;;;;;;6.55;1.00;;;25.70;90.80;;;;;;5031844;28;20064;-76
2022/01/25 08:02:51;;;;;;;7.85;1.17;;;25.60;91.00;;;;;;5034279;28;20028;-74
2022/01/25 08:05:24;;;;;;;9.43;1.40;;;25.40;91.30;;;;;;5031786;28;20459;-75
2022/01/25 08:07:51;;;;;;;8.18;1.50;;;25.40;91.50;;;;;;5032058;28;20056;-76
2022/01/25 08:10:19;;;;;;;8.25;1.50;;;25.30;91.70;;;;;;5032645;28;20080;-76
2022/01/25 08:12:47;;;;;;;11.07;3.55;;;25.20;91.90;;;;;;5032495;28;20028;-76
2022/01/25 08:15:16;;;;;;;8.65;1.48;;;25.20;92.00;;;;;;5032373;28;20028;-74
2022/01/25 08:17:44;;;;;;;6.97;2.25;;;25.20;91.80;;;;;;5030950;28;20022;-76
2022/01/25 08:20:12;;;;;;;6.53;1.45;;;25.20;92.00;;;;;;5032649;28;20517;-74
2022/01/25 08:22:40;;;;;;;7.00;1.08;;;25.10;92.10;;;;;;5025861;28;20025;-75
2022/01/25 08:25:08;;;;;;;7.60;1.20;;;25.10;92.00;;;;;;5030810;28;20086;-78
2022/01/25 08:27:36;;;;;;;7.13;1.80;;;25.10;92.00;;;;;;5033406;28;20072;-75
2022/01/25 08:30:04;;;;;;;10.77;2.17;;;25.10;92.00;;;;;;5031694;28;20029;-75
2022/01/25 08:32:31;;;;;;;6.38;1.23;;;25.00;92.30;;;;;;5031776;28;20033;-77
2022/01/25 08:35:00;;;;;;;7.32;2.25;;;24.90;92.60;;;;;;5032913;28;20796;-76
2022/01/25 08:37:27;;;;;;;6.65;1.40;;;24.90;92.00;;;;;;5032980;28;20032;-76
2022/01/25 08:39:54;;;;;;;4.75;1.13;;;24.90;92.40;;;;;;5031803;28;20087;-76
2022/01/25 08:42:22;;;;;;;6.55;1.20;;;24.80;92.40;;;;;;5031443;28;20402;-75
2022/01/25 08:44:49;;;;;;;7.15;1.98;;;24.80;92.50;;;;;;5032493;28;20367;-76
2022/01/25 08:47:17;;;;;;;6.43;1.88;;;24.90;92.70;;;;;;5032261;28;20048;-75
2022/01/25 08:49:45;;;;;;;8.40;1.33;;;24.90;92.60;;;;;;5032069;28;20036;-75
2022/01/25 08:52:12;;;;;;;4.97;1.15;;;24.90;92.50;;;;;;5029908;28;20017;-73
2022/01/25 08:54:41;;;;;;;7.90;1.63;;;24.80;92.70;;;;;;5032737;28;20026;-75
2022/01/25 08:57:09;;;;;;;9.07;1.88;;;24.80;93.00;;;;;;5033183;28;20037;-74
2022/01/25 08:59:37;;;;;;;6.65;1.23;;;24.70;93.00;;;;;;5031935;28;20533;-73
2022/01/25 09:02:05;;;;;;;5.40;1.40;;;24.70;93.20;;;;;;5031701;28;20133;-75
2022/01/25 09:04:32;;;;;;;7.22;1.40;;;24.60;93.20;;;;;;5032367;28;20036;-74
2022/01/25 09:06:59;;;;;;;16.20;1.98;;;24.60;93.20;;;;;;5028068;28;20021;-72
2022/01/25 09:09:27;;;;;;;6.18;1.20;;;24.60;93.20;;;;;;5031605;28;20486;-73
2022/01/25 09:11:56;;;;;;;6.18;1.35;;;24.60;93.30;;;;;;5031701;28;20429;-72
2022/01/25 09:14:24;;;;;;;7.65;1.85;;;24.60;93.30;;;;;;5026486;28;20028;-72
2022/01/25 09:16:52;;;;;;;9.70;1.85;;;24.50;93.40;;;;;;5031843;28;20087;-71
2022/01/25 09:19:19;;;;;;;7.38;1.73;;;24.40;93.60;;;;;;5031757;28;20068;-76
2022/01/25 09:21:46;;;;;;;6.03;1.50;;;24.30;93.90;;;;;;5031657;28;20029;-75
2022/01/25 09:24:14;;;;;;;10.02;1.58;;;24.30;94.00;;;;;;5031883;28;20083;-76
2022/01/25 09:26:41;;;;;;;7.72;1.02;;;24.30;94.10;;;;;;5029302;28;20037;-71
2022/01/25 09:29:08;;;;;;;6.97;1.20;;;24.30;94.20;;;;;;5030466;28;20021;-72
2022/01/25 09:31:36;;;;;;;6.55;1.20;;;24.20;94.30;;;;;;5031194;28;20068;-72
2022/01/25 09:34:03;;;;;;;6.07;1.02;;;24.20;94.50;;;;;;5030702;28;20024;-71
2022/01/25 09:36:31;;;;;;;5.78;1.25;;;24.10;94.60;;;;;;5030628;28;20029;-74
2022/01/25 09:38:58;;;;;;;6.32;1.33;;;24.00;94.80;;;;;;5031889;28;20049;-72
2022/01/25 09:41:27;;;;;;;6.43;1.33;;;23.90;95.10;;;;;;5030356;28;20091;-73
2022/01/25 09:43:54;;;;;;;10.02;1.58;;;23.80;95.30;;;;;;5030648;28;20048;-71
2022/01/25 09:46:21;;;;;;;7.68;1.73;;;23.70;95.60;;;;;;5030534;28;20022;-75
2022/01/25 09:48:49;;;;;;;11.00;1.50;;;23.70;95.40;;;;;;5029613;28;20021;-73
2022/01/25 09:51:20;;;;;;;7.07;1.45;;;23.80;95.20;;;;;;5027315;28;20095;-74
2022/01/25 09:53:47;;;;;;;12.85;3.60;;;23.80;95.00;;;;;;5026116;28;20033;-74
2022/01/25 09:56:14;;;;;;;9.45;1.73;;;23.80;95.40;;;;;;5028163;28;20514;-73
2022/01/25 09:58:44;;;;;;;8.77;1.83;;;23.90;95.30;;;;;;5030947;28;20535;-70
2022/01/25 10:01:12;;;;;;;8.15;1.30;;;23.80;95.30;;;;;;5030001;28;20029;-74
2022/01/25 10:03:42;;;;;;;7.95;1.10;;;23.80;95.40;;;;;;5028872;28;20033;-70
2022/01/25 10:06:16;;;;;;;6.30;1.38;;;23.80;95.40;;;;;;5027085;28;20029;-74
2022/01/25 10:08:45;;;;;;;6.47;1.40;;;23.80;95.60;;;;;;5029764;28;20033;-73
2022/01/25 10:11:15;;;;;;;6.82;2.47;;;23.80;95.80;;;;;;5028854;28;20041;-74
2022/01/25 10:13:51;;;;;;;7.53;1.40;;;23.80;95.70;;;;;;5028659;28;20063;-73
2022/01/25 10:16:28;;;;;;;3.53;1.40;;;23.80;95.60;;;;;;5029428;28;20025;-74
2022/01/25 10:18:59;;;;;;;8.07;1.63;;;23.80;95.40;;;;;;5027230;28;20075;-68
2022/01/25 10:21:29;;;;;;;5.38;1.42;;;23.70;95.50;;;;;;5029777;28;20037;-74
2022/01/25 10:24:15;;;;;;;5.35;1.23;;;23.60;95.90;;;;;;5028571;28;20029;-68
2022/01/25 10:26:49;;;;;;;8.55;1.85;;;23.60;96.30;;;;;;5029625;28;20021;-73
2022/01/25 10:29:23;;;;;;;8.38;1.52;;;23.60;95.80;;;;;;5029590;28;20021;-73
2022/01/25 10:31:56;;;;;;;6.88;1.30;;;23.60;96.20;;;;;;5028117;28;20049;-71
2022/01/25 10:34:29;;;;;;;7.97;1.50;;;23.70;96.10;;;;;;5028395;28;20474;-71
2022/01/25 10:37:00;;;;;;;7.07;1.40;;;23.80;96.00;;;;;;5029430;28;20072;-70
2022/01/25 10:39:30;;;;;;;5.10;1.35;;;23.80;95.60;;;;;;5029469;28;20033;-73
2022/01/25 10:42:12;;;;;;;5.20;1.55;;;23.80;95.60;;;;;;5029637;28;20034;-74
2022/01/25 10:44:46;;;;;;;2.95;1.30;;;23.70;95.60;;;;;;5028819;28;20026;-73
2022/01/25 10:47:14;;;;;;;13.90;2.30;;;23.70;96.00;;;;;;5029036;28;20049;-72
2022/01/25 10:49:46;;;;;;;7.43;1.42;;;23.70;96.00;;;;;;5029274;28;20033;-74
2022/01/25 10:52:14;;;;;;;7.30;1.88;;;23.60;96.10;;;;;;5029220;28;20112;-73
2022/01/25 10:54:42;;;;;;;10.18;1.67;;;23.60;96.40;;;;;;5030229;28;20022;-69
2022/01/25 10:57:21;;;;;;;8.70;2.17;;;23.60;96.20;;;;;;5032657;28;20040;-68
2022/01/25 11:00:06;;;;;;;8.15;2.05;;;23.60;96.40;;;;;;5031433;28;20017;-75
2022/01/25 11:02:33;;;;;;;3.70;1.30;;;23.60;96.30;;;;;;5030317;28;20033;-73
2022/01/25 11:05:10;;;;;;;4.68;1.23;;;23.50;96.20;;;;;;5033230;28;20025;-69
2022/01/25 11:07:39;;;;;;;7.82;1.48;;;23.50;96.60;;;;;;5032538;28;20056;-72
2022/01/25 11:10:09;;;;;;;6.28;1.70;;;23.50;96.50;;;;;;5033143;28;20048;-68
2022/01/25 11:12:39;;;;;;;6.88;1.88;;;23.60;96.40;;;;;;5031177;28;20029;-73
2022/01/25 11:15:07;;;;;;;5.03;1.20;;;23.50;96.40;;;;;;5032197;28;20115;-71
2022/01/25 11:17:35;;;;;;;8.55;1.92;;;23.60;96.40;;;;;;5032801;28;20026;-73
2022/01/25 11:20:04;;;;;;;9.57;1.42;;;23.60;96.20;;;;;;5032861;28;20090;-72
2022/01/25 11:22:32;;;;;;;6.90;1.90;;;23.60;96.20;;;;;;5030005;28;20037;-74
2022/01/25 11:25:04;;;;;;;9.25;2.33;;;23.70;96.40;;;;;;5031316;28;20039;-74
2022/01/25 11:27:32;;;;;;;6.90;1.85;;;23.70;96.30;;;;;;5030947;28;20017;-75
2022/01/25 11:30:09;;;;;;;8.82;1.88;;;23.70;96.50;;;;;;5031355;28;20040;-73
2022/01/25 11:32:42;;;;;;;4.45;1.10;;;23.70;96.30;;;;;;5027151;28;20026;-73
2022/01/25 11:35:12;;;;;;;8.15;1.60;;;23.70;96.50;;;;;;5033014;28;20017;-77
2022/01/25 11:37:48;;;;;;;5.72;1.20;;;23.70;96.40;;;;;;5033720;28;20105;-71
2022/01/25 11:40:26;;;;;;;7.13;1.38;;;23.60;96.70;;;;;;5033636;28;20030;-72
2022/01/25 11:42:56;;;;;;;8.50;1.63;;;23.70;96.90;;;;;;5032817;28;20009;-71
2022/01/25 11:45:29;;;;;;;5.55;1.45;;;23.70;96.70;;;;;;5032858;28;20034;-73
2022/01/25 11:47:57;;;;;;;5.32;1.20;;;23.70;96.50;;;;;;5033269;28;20021;-71
2022/01/25 11:50:31;;;;;;;8.20;1.70;;;23.70;96.70;;;;;;5033627;28;20041;-71
2022/01/25 11:53:05;;;;;;;9.95;1.58;;;23.70;96.70;;;;;;5032927;28;20022;-71
2022/01/25 11:55:43;;;;;;;6.35;1.20;;;23.70;96.80;;;;;;5031751;28;20049;-72
2022/01/25 11:58:14;;;;;;;6.20;1.10;;;23.70;96.70;;;;;;5028929;28;20014;-71
2022/01/25 12:00:47;;;;;;;4.68;1.40;;;23.70;96.90;;;;;;5031703;28;20022;-73
2022/01/25 12:03:35;;;;;;;6.50;1.10;;;23.70;97.00;;;;;;5030023;28;20025;-73
2022/01/25 12:06:18;;;;;;;10.20;2.03;;;23.70;97.20;;;;;;5029791;28;20121;-74
2022/01/25 12:11:40;;;;;;;6.15;1.40;;;23.70;96.80;;;;;;5030660;28;20049;-75
2022/01/25 12:14:11;;;;;;;8.43;1.60;;;23.70;97.00;;;;;;5028093;28;20017;-73
2022/01/25 12:16:48;;;;;;;7.38;1.50;;;23.60;97.00;;;;;;5031692;28;20009;-71
2022/01/25 12:19:21;;;;;;;5.60;1.50;;;23.70;97.40;;;;;;5014281;28;20022;-72
2022/01/25 12:21:51;;;;;;;2.97;1.33;;;23.60;97.20;;;;;;5022698;28;20205;-70
2022/01/25 12:24:23;;;;;;;5.53;2.08;;;23.70;97.10;;;;;;5027375;28;20026;-75
2022/01/25 12:27:10;;;;;;;7.50;1.48;;;23.60;97.20;;;;;;5031383;28;20478;-73
2022/01/25 12:29:57;;;;;;;8.23;2.33;;;23.60;97.30;;;;;;5029902;28;20028;-72
2022/01/25 12:32:48;;;;;;;6.97;2.28;;;23.60;97.20;;;;;;5029630;28;20468;-73
2022/01/25 12:35:34;;;;;;;11.88;2.47;;;23.60;97.30;;;;;;5029938;28;20032;-76
2022/01/25 12:38:07;;;;;;;9.05;2.90;;;23.60;97.40;;;;;;5029961;28;20028;-73
2022/01/25 12:40:41;;;;;;;6.78;1.77;;;23.60;97.60;;;;;;5027774;28;20385;-75
2022/01/25 12:43:34;;;;;;;10.52;1.73;;;23.60;97.30;;;;;;5031461;28;20548;-75
2022/01/25 12:46:40;;;;;;;9.57;1.60;;;23.60;97.30;;;;;;5030418;28;20017;-76
2022/01/25 12:49:17;;;;;;;9.27;1.48;;;23.60;97.20;;;;;;5030796;28;20136;-75
2022/01/25 12:51:50;;;;;;;9.02;1.70;;;23.50;97.40;;;;;;5030644;28;20080;-73
2022/01/25 12:54:17;;;;;;;6.75;1.58;;;23.40;97.20;;;;;;5030959;28;20389;-75
2022/01/25 12:56:50;;;;;;;4.63;1.38;;;23.40;97.70;;;;;;5030805;28;20051;-76
2022/01/25 12:59:20;;;;;;;5.70;1.20;;;23.50;97.60;;;;;;5028885;28;20052;-76
2022/01/25 13:01:50;;;;;;;9.20;1.20;;;23.50;97.40;;;;;;5030847;28;20049;-76
2022/01/25 13:04:18;;;;;;;5.95;1.70;;;23.50;97.60;;;;;;5030815;28;20026;-73
2022/01/25 13:06:51;;;;;;;9.18;1.80;;;23.50;97.10;;;;;;5031033;28;20088;-74
2022/01/25 13:17:18;;;;;;;7.97;1.58;;;23.40;97.20;;;;;;5030617;28;20069;-72
2022/01/25 13:19:54;;;;;;;9.48;2.05;;;23.30;97.30;;;;;;5028798;28;20064;-74
2022/01/25 13:22:34;;;;;;;7.85;1.88;;;23.30;97.50;;;;;;5029654;28;20034;-72
2022/01/25 13:25:14;;;;;;;5.38;1.10;;;23.20;97.40;;;;;;5029134;28;20028;-71
2022/01/25 13:27:49;;;;;;;6.85;1.15;;;23.30;98.00;;;;;;5028788;28;20017;-71
2022/01/25 13:33:05;;;;;;;7.97;1.35;;;23.30;97.70;;;;;;5029129;28;20575;-74
2022/01/25 13:35:36;;;;;;;7.55;1.27;;;23.30;98.10;;;;;;5031182;28;20436;-74
2022/01/25 13:38:17;;;;;;;5.65;1.38;;;23.40;98.00;;;;;;5028900;28;20066;-75
2022/01/25 13:40:50;;;;;;;7.55;1.30;;;23.40;98.10;;;;;;5028591;28;20032;-73
2022/01/25 13:46:16;;;;;;;6.57;1.55;;;23.50;97.60;;;;;;5031373;28;20025;-73
2022/01/25 13:48:44;;;;;;;8.07;2.20;;;23.50;97.60;;;;;;5031714;28;20087;-75
2022/01/25 13:51:20;;;;;;;9.10;2.67;;;23.50;97.70;;;;;;5031487;28;20029;-72
2022/01/25 13:53:59;;;;;;;5.47;1.13;;;23.50;97.90;;;;;;5031101;28;20104;-76
2022/01/25 13:56:33;;;;;;;6.57;1.20;;;23.60;98.10;;;;;;5028997;28;20036;-75
2022/01/25 13:59:03;;;;;;;8.27;1.48;;;23.60;97.70;;;;;;5028545;28;20022;-71
2022/01/25 14:01:32;;;;;;;5.10;1.13;;;23.50;97.80;;;;;;5030060;28;20060;-75
2022/01/25 14:04:04;;;;;;;3.90;1.70;;;23.50;97.90;;;;;;5030172;28;20470;-74
2022/01/25 14:06:34;;;;;;;4.72;1.30;;;23.50;98.10;;;;;;5030141;28;20072;-74
2022/01/25 14:09:04;;;;;;;9.73;1.85;;;23.60;98.20;;;;;;5031074;28;20104;-71
2022/01/25 14:21:33;;;;;;;6.65;1.50;;;23.50;98.20;;;;;;5031056;28;20176;-76
2022/01/25 14:25:36;;;;;;;7.43;1.50;;;23.60;98.50;;;;;;5030015;28;20021;-73
2022/01/25 14:28:10;;;;;;;6.85;1.90;;;23.60;98.50;;;;;;5013145;28;20124;-75
2022/01/25 14:30:41;;;;;;;7.88;1.55;;;23.50;98.30;;;;;;5032673;28;20531;-75
2022/01/25 14:33:11;;;;;;;11.70;1.55;;;23.50;98.20;;;;;;5034557;28;20702;-75
2022/01/25 14:35:47;;;;;;;7.78;1.35;;;23.40;98.50;;;;;;5032734;28;20493;-75
2022/01/25 14:38:26;;;;;;;6.72;1.40;;;23.40;98.90;;;;;;5032116;28;20086;-73
2022/01/25 14:41:05;;;;;;;5.75;1.45;;;23.40;99.00;;;;;;5034744;28;20017;-76
2022/01/25 14:43:38;;;;;;;6.15;1.60;;;23.30;98.90;;;;;;5034576;28;20018;-72
2022/01/25 14:46:14;;;;;;;12.13;1.70;;;23.30;98.70;;;;;;5034408;28;20053;-76
2022/01/25 14:48:54;;;;;;;10.30;1.60;;;23.30;98.90;;;;;;5033718;28;20018;-74
2022/01/25 14:51:21;;;;;;;9.18;1.52;;;23.20;99.20;;;;;;5033575;28;20030;-74
2022/01/25 14:53:54;;;;;;;5.68;1.83;;;23.20;99.30;;;;;;5034330;28;20020;-75
2022/01/25 14:56:21;;;;;;;8.38;2.00;;;23.30;99.50;;;;;;5031908;28;20026;-77
2022/01/25 15:01:21;;;;;;;5.90;1.30;;;23.30;99.50;;;;;;5033921;28;20490;-72
2022/01/25 15:03:50;;;;;;;7.53;1.52;;;23.30;99.60;;;;;;5035234;28;20021;-72
2022/01/25 15:06:19;;;;;;;6.15;1.42;;;23.20;99.20;;;;;;5033791;28;20382;-76
2022/01/25 15:08:54;;;;;;;8.07;1.60;;;23.30;99.40;;;;;;5035052;28;20049;-72
2022/01/25 15:11:29;;;;;;;6.55;1.35;;;23.30;99.60;;;;;;5031453;28;20067;-74
2022/01/25 15:14:01;;;;;;;4.32;1.10;;;23.30;99.70;;;;;;5034177;28;20477;-72
2022/01/25 15:16:28;;;;;;;7.32;1.17;;;23.30;99.60;;;;;;5032659;28;20029;-70
2022/01/25 15:18:55;;;;;;;5.00;1.55;;;23.30;99.80;;;;;;5034078;28;20028;-71